Time;durP1;ratioP1;P1;durP2;ratioP2;P2;SDS_P1;SDS_P2;PMS_P1;PMS_P2;Temp;Humidity;BMP_temperature;BMP_pressure;BME280_temperature;BME280_humidity;BME280_pressure;Samples;Min_cycle;Max_cycle;Signal;HPM_P1;HPM_P2
2023/10/21 00:01:28;;;;;;;12.15;2.33;;;13.90;99.90;;;;;;4975265;28;20631;-79
2023/10/21 00:03:53;;;;;;;7.03;1.88;;;13.90;99.90;;;;;;4974440;28;20654;-80
2023/10/21 00:06:19;;;;;;;8.95;2.00;;;13.90;99.90;;;;;;4975606;28;20326;-79
2023/10/21 00:08:45;;;;;;;8.73;1.77;;;13.90;99.90;;;;;;4982866;28;20297;-80
2023/10/21 00:11:12;;;;;;;9.70;1.80;;;13.90;99.90;;;;;;4984520;28;20530;-80
2023/10/21 00:13:38;;;;;;;13.52;1.90;;;13.90;99.90;;;;;;4990191;28;20193;-79
2023/10/21 00:16:04;;;;;;;5.30;1.42;;;14.80;99.90;;;;;;4995449;28;20259;-80
2023/10/21 00:18:30;;;;;;;7.57;1.60;;;14.00;99.90;;;;;;4977449;28;20185;-80
2023/10/21 00:20:55;;;;;;;9.13;1.83;;;13.90;99.90;;;;;;4976231;28;20367;-80
2023/10/21 00:23:22;;;;;;;10.45;2.20;;;13.80;99.90;;;;;;4973537;28;20215;-80
2023/10/21 00:25:48;;;;;;;8.32;2.22;;;13.80;99.90;;;;;;4989114;28;20182;-81
2023/10/21 00:28:14;;;;;;;9.40;2.13;;;13.80;99.90;;;;;;4985993;28;20183;-81
2023/10/21 00:30:41;;;;;;;9.02;2.00;;;13.70;99.90;;;;;;4983889;28;20627;-80
2023/10/21 00:33:06;;;;;;;8.02;1.83;;;13.60;99.90;;;;;;4975015;28;20315;-81
2023/10/21 00:35:32;;;;;;;8.27;1.92;;;13.70;99.90;;;;;;4978698;28;20734;-81
2023/10/21 00:37:58;;;;;;;8.40;1.88;;;13.60;99.90;;;;;;4958726;28;20191;-79
2023/10/21 00:40:23;;;;;;;8.65;1.60;;;13.60;99.90;;;;;;4981290;28;20182;-80
2023/10/21 00:42:49;;;;;;;7.85;1.55;;;13.60;99.90;;;;;;4993935;28;20179;-80
2023/10/21 00:45:15;;;;;;;6.03;1.40;;;13.60;99.90;;;;;;4993848;28;20254;-80
2023/10/21 00:47:41;;;;;;;9.05;1.60;;;13.60;99.90;;;;;;4993745;28;20752;-80
2023/10/21 00:50:07;;;;;;;7.30;1.58;;;13.60;99.90;;;;;;4993719;28;20654;-80
2023/10/21 00:52:44;;;;;;;11.27;1.80;;;13.70;99.90;;;;;;4986455;28;20187;-80
2023/10/21 00:55:11;;;;;;;6.18;1.55;;;13.80;99.90;;;;;;4956999;28;20222;-80
2023/10/21 00:57:37;;;;;;;8.07;1.80;;;13.60;99.90;;;;;;4974602;28;20184;-83
2023/10/21 01:00:10;;;;;;;10.38;1.60;;;13.50;99.90;;;;;;4978429;28;20169;-81
2023/10/21 01:02:38;;;;;;;5.33;1.73;;;13.40;99.90;;;;;;4974905;28;20210;-81
2023/10/21 01:05:05;;;;;;;10.00;1.63;;;13.40;99.90;;;;;;4957126;28;20223;-82
2023/10/21 01:07:34;;;;;;;9.60;1.60;;;13.30;99.90;;;;;;4974050;28;20581;-82
2023/10/21 01:10:07;;;;;;;5.43;1.35;;;13.30;99.90;;;;;;4973854;28;20235;-81
2023/10/21 01:12:33;;;;;;;6.65;1.73;;;13.20;99.90;;;;;;4956869;28;20222;-80
2023/10/21 01:14:58;;;;;;;9.15;1.77;;;13.20;99.90;;;;;;4973745;28;20176;-81
2023/10/21 01:17:24;;;;;;;5.95;1.58;;;13.10;99.90;;;;;;4973648;28;20172;-81
2023/10/21 01:19:50;;;;;;;10.73;1.80;;;13.10;99.90;;;;;;4973563;28;20176;-82
2023/10/21 01:22:15;;;;;;;8.65;2.22;;;13.10;99.90;;;;;;4973615;28;20230;-80
2023/10/21 01:24:41;;;;;;;5.25;1.70;;;13.00;99.90;;;;;;4972746;28;20306;-81
2023/10/21 01:27:07;;;;;;;8.25;1.67;;;13.00;99.90;;;;;;4973739;28;20199;-81
2023/10/21 01:29:33;;;;;;;4.22;1.20;;;12.90;99.90;;;;;;4984034;28;20183;-82
2023/10/21 01:31:58;;;;;;;10.10;2.33;;;12.90;99.90;;;;;;4992770;28;20171;-81
2023/10/21 01:34:24;;;;;;;12.65;1.95;;;12.90;99.90;;;;;;4993304;28;20167;-78
2023/10/21 01:36:50;;;;;;;6.80;1.33;;;12.00;99.90;;;;;;4993131;28;20167;-79
2023/10/21 01:39:18;;;;;;;6.78;1.50;;;12.80;99.90;;;;;;4992802;28;20167;-79
2023/10/21 01:41:44;;;;;;;12.20;2.03;;;12.70;99.90;;;;;;4993014;28;20234;-80
2023/10/21 01:44:10;;;;;;;8.38;1.67;;;12.70;99.90;;;;;;4993355;28;20171;-79
2023/10/21 01:46:37;;;;;;;12.07;1.88;;;12.60;99.90;;;;;;4992825;28;20210;-80
2023/10/21 01:49:03;;;;;;;10.82;1.80;;;12.60;99.90;;;;;;4992919;28;20167;-79
2023/10/21 01:51:29;;;;;;;5.73;1.90;;;12.60;99.90;;;;;;4992709;28;20258;-78
2023/10/21 01:53:55;;;;;;;7.27;1.70;;;12.60;99.90;;;;;;4992556;28;20183;-79
2023/10/21 01:56:20;;;;;;;15.60;2.00;;;12.60;99.90;;;;;;4992726;28;20524;-79
2023/10/21 01:58:46;;;;;;;8.70;1.67;;;12.70;99.90;;;;;;4992645;28;20270;-79
2023/10/21 02:01:11;;;;;;;7.70;1.87;;;12.60;99.90;;;;;;4993082;28;20306;-81
2023/10/21 02:03:43;;;;;;;2.87;1.30;;;12.40;99.90;;;;;;4992691;28;20174;-80
2023/10/21 02:06:09;;;;;;;9.68;1.40;;;12.60;99.90;;;;;;4992612;28;20673;-79
2023/10/21 02:08:35;;;;;;;6.77;1.57;;;12.50;99.90;;;;;;4992356;28;20227;-79
2023/10/21 02:11:02;;;;;;;6.88;1.88;;;12.40;99.90;;;;;;4975173;28;20669;-80
2023/10/21 02:13:27;;;;;;;4.30;1.52;;;12.40;99.90;;;;;;4996726;28;20193;-80
2023/10/21 02:15:53;;;;;;;8.97;1.90;;;12.40;99.90;;;;;;4999496;28;20254;-79
2023/10/21 02:18:19;;;;;;;12.00;1.90;;;12.40;99.90;;;;;;4993221;28;20198;-80
2023/10/21 02:20:44;;;;;;;7.10;1.30;;;12.50;99.90;;;;;;4992679;28;20203;-82
2023/10/21 02:23:10;;;;;;;8.75;1.60;;;12.80;99.90;;;;;;4992455;28;20202;-81
2023/10/21 02:25:36;;;;;;;8.03;1.37;;;12.60;99.90;;;;;;4992716;28;20170;-80
2023/10/21 02:28:02;;;;;;;6.57;1.90;;;12.60;99.90;;;;;;4993298;28;20179;-80
2023/10/21 02:30:28;;;;;;;8.13;1.70;;;12.70;99.90;;;;;;4974687;28;20187;-82
2023/10/21 02:32:54;;;;;;;4.65;1.35;;;12.80;99.90;;;;;;4973770;28;20263;-80
2023/10/21 02:35:21;;;;;;;6.35;1.30;;;12.70;99.90;;;;;;4955538;28;20276;-80
2023/10/21 02:37:47;;;;;;;6.00;1.55;;;13.00;99.90;;;;;;4972985;28;20203;-82
2023/10/21 02:40:15;;;;;;;7.28;1.33;;;12.80;99.90;;;;;;4983486;28;20168;-80
2023/10/21 02:42:44;;;;;;;7.07;1.50;;;12.80;99.90;;;;;;4999879;28;20211;-78
2023/10/21 02:45:10;;;;;;;8.03;1.57;;;12.70;99.90;;;;;;4984820;28;20175;-78
2023/10/21 02:47:36;;;;;;;5.43;1.30;;;12.70;99.90;;;;;;4984409;28;20176;-79
2023/10/21 02:50:06;;;;;;;7.17;1.27;;;12.70;99.90;;;;;;4981850;28;20396;-80
2023/10/21 02:52:35;;;;;;;5.65;1.17;;;12.80;99.90;;;;;;4984253;28;20191;-81
2023/10/21 02:55:00;;;;;;;3.47;1.27;;;12.70;99.90;;;;;;4992343;28;20515;-80
2023/10/21 02:57:27;;;;;;;6.50;1.60;;;12.70;99.90;;;;;;4974052;28;20199;-80
2023/10/21 02:59:53;;;;;;;5.43;1.27;;;12.80;99.90;;;;;;4972750;28;20203;-80
2023/10/21 03:02:19;;;;;;;4.10;1.20;;;12.70;99.90;;;;;;4973204;28;20215;-82
2023/10/21 03:04:45;;;;;;;10.70;1.48;;;;;;;;;;4972721;28;20211;-82
2023/10/21 03:07:11;;;;;;;4.10;1.17;;;12.80;99.90;;;;;;4955457;28;20631;-82
2023/10/21 03:09:37;;;;;;;7.97;1.40;;;12.40;99.90;;;;;;4990543;28;20293;-83
2023/10/21 03:12:02;;;;;;;5.00;1.23;;;12.60;99.90;;;;;;4992096;28;20642;-81
2023/10/21 03:14:28;;;;;;;5.40;1.47;;;12.50;99.90;;;;;;4992098;28;20179;-82
2023/10/21 03:16:54;;;;;;;5.60;1.27;;;12.60;99.90;;;;;;4977061;28;20240;-81
2023/10/21 03:19:20;;;;;;;6.50;1.30;;;;;;;;;;4972960;28;20184;-81
2023/10/21 03:21:45;;;;;;;5.78;1.30;;;12.70;99.90;;;;;;4974330;28;20216;-82
2023/10/21 03:24:12;;;;;;;9.07;1.50;;;12.70;99.90;;;;;;4972342;28;20281;-81
2023/10/21 03:26:38;;;;;;;9.77;1.20;;;12.40;99.90;;;;;;4972139;28;20270;-81
2023/10/21 03:29:04;;;;;;;6.95;1.30;;;;;;;;;;4972234;28;20182;-80
2023/10/21 03:31:30;;;;;;;4.43;1.17;;;12.50;99.90;;;;;;4972549;28;20235;-81
2023/10/21 03:33:56;;;;;;;5.07;1.10;;;;;;;;;;4971817;28;20649;-80
2023/10/21 03:36:22;;;;;;;6.78;1.45;;;13.10;99.90;;;;;;4972156;28;20187;-81
2023/10/21 03:38:47;;;;;;;2.17;1.00;;;12.90;99.90;;;;;;4972022;28;20540;-80
2023/10/21 03:41:16;;;;;;;3.67;0.82;;;12.90;99.90;;;;;;4956274;28;20219;-81
2023/10/21 03:43:42;;;;;;;5.05;1.00;;;12.90;99.90;;;;;;4982042;28;20175;-81
2023/10/21 03:46:14;;;;;;;6.47;1.07;;;12.90;99.90;;;;;;4982611;28;20191;-80
2023/10/21 03:48:40;;;;;;;4.72;1.20;;;12.50;99.90;;;;;;4976045;28;20191;-81
2023/10/21 03:51:09;;;;;;;5.18;1.00;;;12.90;99.90;;;;;;4976039;28;20179;-80
2023/10/21 03:53:35;;;;;;;7.88;1.48;;;12.90;99.90;;;;;;4975563;28;20200;-80
2023/10/21 03:56:02;;;;;;;7.78;1.40;;;13.00;99.90;;;;;;4975908;28;20591;-79
2023/10/21 03:58:28;;;;;;;4.97;1.15;;;13.00;99.90;;;;;;4980877;28;20327;-81
2023/10/21 04:00:56;;;;;;;5.15;1.20;;;12.90;99.90;;;;;;4977005;28;20211;-80
2023/10/21 04:03:25;;;;;;;5.95;1.30;;;13.00;99.90;;;;;;4987510;28;20197;-79
2023/10/21 04:05:53;;;;;;;2.65;1.05;;;12.90;99.90;;;;;;4989061;28;20705;-79
2023/10/21 04:08:19;;;;;;;7.25;1.02;;;13.30;99.90;;;;;;4994969;28;20183;-80
2023/10/21 04:10:45;;;;;;;9.85;1.27;;;13.00;99.90;;;;;;4994711;28;20549;-80
2023/10/21 04:13:10;;;;;;;7.88;1.20;;;13.00;99.90;;;;;;4994658;28;20172;-79
2023/10/21 04:15:36;;;;;;;9.15;1.27;;;13.00;99.90;;;;;;4989622;28;20176;-79
2023/10/21 04:18:01;;;;;;;3.13;1.48;;;13.10;99.90;;;;;;4993401;28;20183;-80
2023/10/21 04:20:27;;;;;;;2.75;1.02;;;;;;;;;;5002891;28;20167;-80
2023/10/21 04:22:53;;;;;;;2.58;1.20;;;13.10;99.90;;;;;;4989935;28;20556;-78
2023/10/21 04:25:19;;;;;;;4.70;1.15;;;13.10;99.90;;;;;;4975246;28;20183;-80
2023/10/21 04:27:44;;;;;;;6.50;1.45;;;13.10;99.90;;;;;;4975026;28;20674;-79
2023/10/21 04:30:11;;;;;;;5.72;1.30;;;13.10;99.90;;;;;;4974622;28;20182;-78
2023/10/21 04:32:36;;;;;;;4.57;1.20;;;13.10;99.90;;;;;;4974873;28;20172;-78
2023/10/21 04:35:04;;;;;;;6.18;1.38;;;13.10;99.90;;;;;;4979793;28;20254;-77
2023/10/21 04:37:31;;;;;;;6.10;1.33;;;13.10;99.90;;;;;;4994089;28;20186;-78
2023/10/21 04:39:56;;;;;;;6.80;1.52;;;13.10;99.90;;;;;;4994738;28;20180;-79
2023/10/21 04:42:23;;;;;;;7.00;1.40;;;13.10;99.90;;;;;;4994270;28;20696;-80
2023/10/21 04:44:49;;;;;;;10.50;1.60;;;13.10;99.90;;;;;;4994247;28;20175;-81
2023/10/21 04:47:18;;;;;;;2.08;0.80;;;13.10;99.90;;;;;;4994294;28;20179;-81
2023/10/21 04:49:44;;;;;;;4.63;0.93;;;;;;;;;;4994104;28;20198;-80
2023/10/21 04:52:17;;;;;;;8.88;1.33;;;12.90;99.90;;;;;;4995022;28;20479;-81
2023/10/21 04:54:43;;;;;;;7.72;1.05;;;;;;;;;;4994457;28;20175;-80
2023/10/21 04:57:10;;;;;;;2.88;1.05;;;12.70;99.90;;;;;;4997630;28;20264;-80
2023/10/21 04:59:36;;;;;;;3.33;1.00;;;12.80;99.90;;;;;;4997079;28;20175;-80
2023/10/21 05:02:04;;;;;;;7.70;1.35;;;12.80;99.90;;;;;;4998827;28;20215;-81
2023/10/21 05:04:30;;;;;;;11.05;1.20;;;12.60;99.90;;;;;;4994535;28;20284;-79
2023/10/21 05:06:55;;;;;;;9.73;1.73;;;12.80;99.90;;;;;;4994508;28;20180;-79
2023/10/21 05:09:21;;;;;;;3.67;1.00;;;12.70;99.90;;;;;;4993627;28;20820;-78
2023/10/21 05:11:47;;;;;;;6.38;1.40;;;12.70;99.90;;;;;;4997149;28;20186;-78
2023/10/21 05:14:12;;;;;;;7.68;1.40;;;12.60;99.90;;;;;;5005241;28;20182;-79
2023/10/21 05:16:38;;;;;;;5.72;1.35;;;12.60;99.90;;;;;;5010822;28;20293;-76
2023/10/21 05:19:04;;;;;;;6.20;1.10;;;12.70;99.90;;;;;;5004957;28;20171;-78
2023/10/21 05:21:31;;;;;;;6.88;1.65;;;12.70;99.90;;;;;;4987882;28;20211;-78
2023/10/21 05:23:57;;;;;;;9.32;1.23;;;12.70;99.90;;;;;;5000052;28;20266;-77
2023/10/21 05:26:22;;;;;;;14.27;1.55;;;12.70;99.90;;;;;;4990450;28;20183;-80
2023/10/21 05:28:48;;;;;;;6.70;1.27;;;12.70;99.90;;;;;;5000509;28;20237;-80
2023/10/21 05:31:14;;;;;;;7.38;1.48;;;12.80;99.90;;;;;;4977036;28;20187;-80
2023/10/21 05:33:40;;;;;;;9.57;1.40;;;12.80;99.90;;;;;;4995944;28;20249;-80
2023/10/21 05:36:06;;;;;;;5.45;1.42;;;12.70;99.90;;;;;;4998900;28;20215;-80
2023/10/21 05:38:32;;;;;;;4.82;1.25;;;;;;;;;;4997483;28;20198;-79
2023/10/21 05:40:58;;;;;;;3.33;1.10;;;13.00;99.90;;;;;;4981315;28;20211;-79
2023/10/21 05:43:24;;;;;;;5.63;1.50;;;12.90;99.90;;;;;;4975417;28;20541;-79
2023/10/21 05:45:49;;;;;;;4.13;1.50;;;12.80;99.90;;;;;;4974544;28;20187;-79
2023/10/21 05:48:15;;;;;;;4.20;1.70;;;12.80;99.90;;;;;;4974278;28;20662;-81
2023/10/21 05:50:41;;;;;;;2.88;1.75;;;12.70;99.90;;;;;;4974272;28;20249;-81
2023/10/21 05:53:07;;;;;;;3.75;1.92;;;12.60;99.90;;;;;;4956890;28;20271;-80
2023/10/21 05:55:33;;;;;;;4.05;2.20;;;12.60;99.90;;;;;;4973784;28;20207;-80
2023/10/21 05:57:58;;;;;;;4.63;1.90;;;12.50;99.90;;;;;;4956290;28;20670;-81
2023/10/21 06:00:25;;;;;;;3.70;2.10;;;12.60;99.90;;;;;;4973614;28;20604;-81
2023/10/21 06:02:51;;;;;;;2.27;2.00;;;12.50;99.90;;;;;;4973836;28;20257;-80
2023/10/21 06:05:16;;;;;;;4.87;2.17;;;12.50;99.90;;;;;;4974591;28;20627;-80
2023/10/21 06:07:42;;;;;;;2.70;1.70;;;12.30;99.90;;;;;;4973802;28;20267;-80
2023/10/21 06:10:09;;;;;;;2.67;1.90;;;12.40;99.90;;;;;;4955458;28;20314;-81
2023/10/21 06:12:35;;;;;;;1.80;1.70;;;12.30;99.90;;;;;;4956350;28;20186;-80
2023/10/21 06:15:01;;;;;;;3.67;1.90;;;12.30;99.90;;;;;;4975179;28;20694;-80
2023/10/21 06:17:27;;;;;;;3.37;1.67;;;12.30;99.90;;;;;;4973570;28;20180;-80
2023/10/21 06:19:53;;;;;;;3.57;2.07;;;12.30;99.90;;;;;;4972238;28;20530;-81
2023/10/21 06:22:19;;;;;;;1.70;1.60;;;12.30;99.90;;;;;;4972790;28;20227;-79
2023/10/21 06:24:46;;;;;;;2.17;1.80;;;12.30;99.90;;;;;;4974548;28;20164;-81
2023/10/21 06:27:12;;;;;;;3.57;1.93;;;12.30;99.90;;;;;;4973549;28;20234;-79
2023/10/21 06:29:37;;;;;;;3.00;1.70;;;12.20;99.90;;;;;;4976040;28;20539;-82
2023/10/21 06:32:08;;;;;;;5.60;1.60;;;12.30;99.90;;;;;;4974869;28;20175;-81
2023/10/21 06:34:34;;;;;;;2.57;1.80;;;12.30;99.90;;;;;;4984997;28;20222;-82
2023/10/21 06:37:00;;;;;;;2.53;1.53;;;12.10;99.90;;;;;;4992753;28;20179;-81
2023/10/21 06:39:26;;;;;;;2.45;1.80;;;12.20;99.90;;;;;;4990452;28;20182;-81
2023/10/21 06:41:53;;;;;;;3.85;1.75;;;12.10;99.90;;;;;;4983170;28;20211;-81
2023/10/21 06:44:18;;;;;;;4.60;1.63;;;12.10;99.90;;;;;;4972775;28;20172;-79
2023/10/21 06:46:44;;;;;;;2.40;2.10;;;12.20;99.90;;;;;;4980245;28;20283;-81
2023/10/21 06:49:10;;;;;;;2.92;1.90;;;12.10;99.90;;;;;;4979266;28;20176;-79
2023/10/21 06:51:36;;;;;;;2.37;1.70;;;12.10;99.90;;;;;;4978595;28;20171;-80
2023/10/21 06:54:03;;;;;;;2.80;1.60;;;12.20;99.90;;;;;;4991976;28;20183;-81
2023/10/21 06:56:29;;;;;;;2.70;1.80;;;;;;;;;;4982822;28;20267;-80
2023/10/21 06:58:55;;;;;;;2.28;1.98;;;12.10;99.90;;;;;;4955040;28;20186;-78
2023/10/21 07:01:20;;;;;;;2.37;1.70;;;12.10;99.90;;;;;;4954858;28;20306;-78
2023/10/21 07:03:46;;;;;;;2.07;1.87;;;12.00;99.90;;;;;;4972894;28;20172;-79
2023/10/21 07:06:12;;;;;;;3.70;2.20;;;;;;;;;;4939120;28;20187;-78
2023/10/21 07:08:38;;;;;;;2.33;2.00;;;12.10;99.90;;;;;;4977715;28;20729;-79
2023/10/21 07:11:04;;;;;;;2.77;2.40;;;;;;;;;;4991658;28;20175;-80
2023/10/21 07:13:30;;;;;;;5.07;2.17;;;12.10;99.90;;;;;;4990432;28;20194;-78
2023/10/21 07:15:55;;;;;;;2.57;2.30;;;11.90;99.90;;;;;;4989569;28;20183;-79
2023/10/21 07:18:21;;;;;;;2.95;2.10;;;12.10;99.90;;;;;;4990436;28;20179;-81
2023/10/21 07:20:47;;;;;;;3.17;2.20;;;12.30;99.90;;;;;;4992438;28;20638;-81
2023/10/21 07:23:14;;;;;;;4.32;2.20;;;;;;;;;;4993260;28;20175;-80
2023/10/21 07:25:41;;;;;;;2.20;1.80;;;12.10;99.90;;;;;;4979872;28;20175;-79
2023/10/21 07:28:07;;;;;;;3.90;1.90;;;;;;;;;;4976531;28;20176;-80
2023/10/21 07:30:33;;;;;;;2.80;1.70;;;12.10;99.90;;;;;;4976057;28;20176;-79
2023/10/21 07:33:00;;;;;;;4.90;1.70;;;;;;;;;;4976631;28;20180;-79
2023/10/21 07:35:26;;;;;;;3.57;1.70;;;12.10;99.90;;;;;;4976533;28;20188;-79
2023/10/21 07:37:54;;;;;;;1.60;1.40;;;;;;;;;;4976540;28;20242;-79
2023/10/21 07:40:20;;;;;;;2.00;1.20;;;12.00;99.90;;;;;;4976012;28;20234;-79
2023/10/21 07:42:46;;;;;;;2.23;1.33;;;;;;;;;;4976972;28;20314;-78
2023/10/21 07:45:14;;;;;;;5.93;1.70;;;;;;;;;;4977716;28;20168;-79
2023/10/21 07:47:41;;;;;;;2.07;1.43;;;12.30;99.90;;;;;;4983168;28;20172;-80
2023/10/21 07:50:07;;;;;;;1.57;1.10;;;;;;;;;;4980268;28;20308;-78
2023/10/21 07:52:35;;;;;;;3.10;1.60;;;12.40;99.90;;;;;;4975929;28;20172;-78
2023/10/21 07:55:02;;;;;;;1.87;1.40;;;12.40;99.90;;;;;;4989393;28;20202;-80
2023/10/21 07:57:28;;;;;;;4.55;1.58;;;12.50;99.90;;;;;;4995401;28;20188;-80
2023/10/21 07:59:54;;;;;;;4.97;1.47;;;;;;;;;;4995138;28;20668;-80
2023/10/21 08:02:21;;;;;;;2.03;1.30;;;12.50;99.90;;;;;;4995341;28;20571;-79
2023/10/21 08:04:47;;;;;;;1.83;1.40;;;12.50;99.90;;;;;;4995433;28;20179;-84
2023/10/21 08:07:13;;;;;;;3.80;1.40;;;12.50;99.90;;;;;;4994974;28;20182;-77
2023/10/21 08:09:39;;;;;;;2.85;0.90;;;;;;;;;;4994799;28;20324;-76
2023/10/21 08:12:05;;;;;;;1.50;1.10;;;12.90;99.90;;;;;;4985593;28;20180;-76
2023/10/21 08:14:31;;;;;;;2.33;1.10;;;12.30;99.90;;;;;;4975177;28;20202;-76
2023/10/21 08:17:00;;;;;;;3.05;1.17;;;12.30;99.90;;;;;;4975069;28;20184;-76
2023/10/21 08:19:27;;;;;;;1.60;1.00;;;12.40;99.90;;;;;;4987044;28;20654;-77
2023/10/21 08:21:53;;;;;;;1.20;0.83;;;12.30;99.90;;;;;;4989126;28;20219;-77
2023/10/21 08:24:18;;;;;;;2.00;1.00;;;12.70;99.90;;;;;;4986812;28;20187;-75
2023/10/21 08:26:44;;;;;;;2.67;0.93;;;12.30;99.90;;;;;;4977501;28;20187;-76
2023/10/21 08:29:10;;;;;;;1.13;0.70;;;12.50;99.90;;;;;;4976251;28;20210;-76
2023/10/21 08:31:36;;;;;;;1.00;0.60;;;12.50;99.90;;;;;;4983529;28;20214;-75
2023/10/21 08:34:01;;;;;;;2.27;0.70;;;12.30;99.90;;;;;;4996997;28;20196;-77
2023/10/21 08:36:27;;;;;;;2.25;0.70;;;12.40;99.90;;;;;;5002765;28;20183;-75
2023/10/21 08:38:56;;;;;;;0.70;0.43;;;;;;;;;;4963497;28;20180;-76
2023/10/21 08:41:22;;;;;;;2.83;0.50;;;12.40;99.90;;;;;;4977259;28;20220;-77
2023/10/21 08:43:49;;;;;;;1.43;0.50;;;12.40;99.90;;;;;;4975870;28;20164;-80
2023/10/21 08:46:16;;;;;;;4.10;0.60;;;12.40;99.90;;;;;;4974869;28;20650;-78
2023/10/21 08:48:46;;;;;;;1.17;0.60;;;12.40;99.90;;;;;;4957815;28;20191;-77
2023/10/21 08:51:20;;;;;;;1.83;0.67;;;12.40;99.90;;;;;;4974688;28;20175;-78
2023/10/21 08:53:47;;;;;;;1.27;0.50;;;12.60;99.90;;;;;;4975658;28;20180;-76
2023/10/21 08:56:14;;;;;;;2.77;0.50;;;12.40;99.90;;;;;;4974681;28;20171;-75
2023/10/21 08:58:40;;;;;;;2.13;0.67;;;;;;;;;;4968031;28;20175;-76
2023/10/21 09:01:06;;;;;;;0.70;0.45;;;12.60;99.90;;;;;;4975251;28;20208;-77
2023/10/21 09:03:32;;;;;;;0.70;0.40;;;12.60;99.90;;;;;;4973851;28;20180;-76
2023/10/21 09:06:07;;;;;;;0.95;0.35;;;12.50;99.90;;;;;;4973857;28;20209;-77
2023/10/21 09:08:34;;;;;;;1.95;0.40;;;12.50;99.90;;;;;;4977213;28;20225;-74
2023/10/21 09:11:00;;;;;;;0.40;0.40;;;12.30;99.90;;;;;;4986350;28;20194;-73
2023/10/21 09:13:32;;;;;;;1.25;0.47;;;12.50;99.90;;;;;;4993037;28;20167;-73
2023/10/21 09:15:58;;;;;;;0.30;0.20;;;12.60;99.90;;;;;;4954653;29;20187;-72
2023/10/21 09:18:23;;;;;;;1.55;0.40;;;12.60;99.90;;;;;;4960502;28;20168;-73
2023/10/21 09:20:49;;;;;;;2.43;0.40;;;12.60;99.90;;;;;;4978772;28;20190;-73
2023/10/21 09:23:17;;;;;;;1.38;0.30;;;12.70;99.90;;;;;;4987554;28;20194;-72
2023/10/21 09:25:49;;;;;;;0.22;0.22;;;14.70;99.90;;;;;;4985932;28;20693;-72
2023/10/21 09:28:23;;;;;;;0.95;0.30;;;12.50;99.90;;;;;;4995073;28;20933;-73
2023/10/21 09:30:58;;;;;;;0.90;0.43;;;12.60;99.90;;;;;;4994442;28;20184;-74
2023/10/21 09:33:25;;;;;;;0.40;0.20;;;12.60;99.90;;;;;;4977514;28;20650;-74
2023/10/21 09:36:04;;;;;;;0.80;0.50;;;12.70;99.90;;;;;;4975724;28;20680;-74
2023/10/21 09:38:37;;;;;;;1.17;0.43;;;12.70;99.90;;;;;;4980652;28;20191;-74
2023/10/21 09:41:16;;;;;;;0.30;0.30;;;12.80;99.90;;;;;;4987284;28;20207;-73
2023/10/21 09:43:43;;;;;;;0.95;0.35;;;12.80;99.90;;;;;;4994044;28;20211;-76
2023/10/21 09:46:12;;;;;;;0.63;0.43;;;12.90;99.90;;;;;;4992854;28;20175;-75
2023/10/21 09:48:44;;;;;;;1.23;0.32;;;12.70;99.90;;;;;;4988133;28;20175;-74
2023/10/21 09:51:13;;;;;;;0.82;0.40;;;12.70;99.90;;;;;;4976567;28;20271;-73
2023/10/21 09:53:42;;;;;;;0.35;0.30;;;12.70;99.90;;;;;;4972658;28;20230;-74
2023/10/21 09:56:11;;;;;;;0.38;0.38;;;12.90;99.90;;;;;;4981349;28;20661;-73
2023/10/21 09:58:40;;;;;;;0.47;0.30;;;10.70;99.90;;;;;;4988100;28;20306;-74
2023/10/21 10:01:07;;;;;;;1.20;0.30;;;12.80;99.90;;;;;;4987069;28;20212;-74
2023/10/21 10:03:34;;;;;;;1.25;0.57;;;;;;;;;;4976051;28;20198;-76
2023/10/21 10:06:04;;;;;;;0.32;0.30;;;12.80;99.90;;;;;;4973006;28;20180;-73
2023/10/21 10:08:35;;;;;;;1.58;0.45;;;12.70;99.90;;;;;;4986694;28;20784;-76
2023/10/21 10:11:11;;;;;;;0.60;0.40;;;12.90;99.90;;;;;;4980308;28;20274;-74
2023/10/21 10:13:42;;;;;;;0.70;0.40;;;13.00;99.90;;;;;;4961767;28;20178;-74
2023/10/21 10:16:23;;;;;;;0.70;0.52;;;12.90;99.90;;;;;;4986943;28;20634;-74
2023/10/21 10:18:50;;;;;;;2.08;0.90;;;13.00;99.90;;;;;;4987849;28;20175;-76
2023/10/21 10:21:18;;;;;;;3.17;0.60;;;13.00;99.90;;;;;;4990771;28;20214;-77
2023/10/21 10:23:58;;;;;;;1.15;0.75;;;12.90;99.90;;;;;;4981110;28;20333;-81
2023/10/21 10:26:36;;;;;;;5.05;0.77;;;13.10;99.90;;;;;;4957061;28;20172;-81
2023/10/21 10:29:19;;;;;;;1.02;0.70;;;12.80;99.90;;;;;;4975137;28;20175;-78
2023/10/21 10:31:47;;;;;;;1.63;0.93;;;13.40;99.90;;;;;;4973323;28;20241;-75
2023/10/21 10:34:16;;;;;;;2.90;1.00;;;13.20;99.90;;;;;;4972762;28;20184;-76
2023/10/21 10:36:42;;;;;;;4.03;1.20;;;13.30;99.90;;;;;;4957242;28;20219;-75
2023/10/21 10:39:08;;;;;;;2.15;0.82;;;;;;;;;;4981093;28;20176;-76
2023/10/21 10:41:47;;;;;;;0.90;0.82;;;13.30;99.90;;;;;;4971904;28;20215;-76
2023/10/21 10:44:15;;;;;;;3.28;1.00;;;13.40;99.90;;;;;;4973316;28;20171;-76
2023/10/21 10:46:41;;;;;;;2.05;0.70;;;13.20;99.90;;;;;;4984341;28;20171;-76
2023/10/21 10:49:08;;;;;;;2.70;0.85;;;;;;;;;;4994373;28;20234;-77
2023/10/21 10:51:43;;;;;;;0.98;0.70;;;13.10;99.90;;;;;;4979917;28;20247;-73
2023/10/21 10:54:15;;;;;;;0.80;0.63;;;;;;;;;;4976293;28;20167;-76
2023/10/21 10:56:49;;;;;;;0.90;0.80;;;13.10;99.90;;;;;;4974640;28;20182;-77
2023/10/21 10:59:19;;;;;;;1.80;0.88;;;13.00;99.90;;;;;;4977026;28;20242;-76
2023/10/21 11:01:55;;;;;;;2.63;0.95;;;12.90;99.90;;;;;;4978713;28;20257;-74
2023/10/21 11:04:21;;;;;;;3.15;0.80;;;12.90;99.90;;;;;;4979333;28;20172;-76
2023/10/21 11:06:47;;;;;;;1.55;0.80;;;;;;;;;;4993615;28;20230;-76
2023/10/21 11:09:30;;;;;;;1.15;0.70;;;;;;;;;;4994805;28;20713;-76
2023/10/21 11:11:57;;;;;;;0.65;0.52;;;;;;;;;;4995425;28;20178;-76
2023/10/21 11:14:24;;;;;;;1.55;0.60;;;12.70;99.90;;;;;;4995468;28;20640;-76
2023/10/21 11:16:50;;;;;;;1.90;0.80;;;12.60;99.90;;;;;;4995575;28;20176;-76
2023/10/21 11:19:17;;;;;;;2.13;0.70;;;;;;;;;;4995344;28;20167;-76
2023/10/21 11:21:48;;;;;;;1.23;0.55;;;12.80;99.90;;;;;;4995597;28;20215;-75
2023/10/21 11:24:14;;;;;;;2.08;0.70;;;12.40;99.90;;;;;;4993794;28;20175;-74
2023/10/21 11:26:41;;;;;;;0.95;0.52;;;12.40;99.90;;;;;;4997885;28;20588;-74
2023/10/21 11:29:07;;;;;;;6.22;0.68;;;12.30;99.90;;;;;;5006684;28;20180;-74
2023/10/21 11:31:36;;;;;;;1.47;0.63;;;;;;;;;;4998769;28;20198;-75
2023/10/21 11:34:15;;;;;;;1.52;0.60;;;12.20;99.90;;;;;;4995492;28;20254;-75
2023/10/21 11:36:46;;;;;;;1.23;0.70;;;12.30;99.90;;;;;;4983255;28;20179;-76
2023/10/21 11:39:15;;;;;;;4.23;0.80;;;12.40;99.90;;;;;;4975586;28;20176;-75
2023/10/21 11:41:48;;;;;;;0.73;0.68;;;12.50;99.90;;;;;;4975693;28;20577;-76
2023/10/21 11:44:16;;;;;;;1.20;0.80;;;12.60;99.90;;;;;;4975630;28;20178;-77
2023/10/21 11:46:42;;;;;;;1.35;0.75;;;12.40;99.90;;;;;;4980547;28;20260;-75
2023/10/21 11:49:14;;;;;;;1.45;0.90;;;12.50;99.90;;;;;;4994967;28;20762;-75
2023/10/21 11:51:46;;;;;;;1.20;0.70;;;12.60;99.90;;;;;;4994877;28;20183;-74
2023/10/21 11:55:22;;;;;;;2.30;1.00;;;;;;;;;;4971836;28;20172;-75
2023/10/21 12:16:04;;;;;;;2.60;1.80;;;;;;;;;;4964217;28;20195;-77
2023/10/21 12:19:16;;;;;;;5.77;1.90;;;;;;;;;;4987589;28;20234;-77
2023/10/21 12:42:29;;;;;;;1.87;1.23;;;;;;;;;;4995180;28;20696;-75
2023/10/21 12:44:57;;;;;;;1.77;1.20;;;11.90;99.90;;;;;;4997347;28;20168;-76
2023/10/21 12:47:24;;;;;;;3.43;1.50;;;12.00;99.90;;;;;;4995401;28;20203;-77
2023/10/21 12:49:55;;;;;;;2.90;1.20;;;11.90;99.90;;;;;;4994143;28;20182;-78
2023/10/21 12:52:23;;;;;;;2.13;1.20;;;11.80;99.90;;;;;;4994479;28;20666;-78
2023/10/21 12:54:49;;;;;;;2.37;1.23;;;11.90;99.90;;;;;;4993876;28;20658;-77
2023/10/21 12:57:15;;;;;;;1.73;1.17;;;;;;;;;;4992395;28;20203;-77
2023/10/21 12:59:41;;;;;;;3.63;1.40;;;11.70;99.90;;;;;;4993383;28;20290;-78
2023/10/21 13:02:09;;;;;;;3.87;1.20;;;11.90;99.90;;;;;;4976079;28;20267;-80
2023/10/21 13:04:40;;;;;;;4.60;1.20;;;11.80;99.90;;;;;;4993454;28;20175;-77
2023/10/21 13:07:07;;;;;;;3.20;1.23;;;;;;;;;;4993308;28;20175;-79
2023/10/21 13:09:33;;;;;;;5.17;1.40;;;;;;;;;;4993340;28;20246;-78
2023/10/21 13:11:58;;;;;;;2.80;1.20;;;11.80;99.90;;;;;;4975972;28;20234;-78
2023/10/21 13:14:27;;;;;;;6.03;1.10;;;;;;;;;;4987698;28;20179;-77
2023/10/21 13:16:53;;;;;;;1.23;1.00;;;12.10;99.90;;;;;;4974257;28;20184;-77
2023/10/21 13:19:19;;;;;;;1.80;1.00;;;12.50;99.90;;;;;;4973745;28;20176;-80
2023/10/21 13:21:44;;;;;;;2.73;0.90;;;12.90;99.90;;;;;;4988203;28;20705;-79
2023/10/21 13:24:11;;;;;;;3.08;0.98;;;;;;;;;;4993264;28;20546;-79
2023/10/21 13:26:37;;;;;;;2.83;1.10;;;13.90;99.90;;;;;;4961913;28;20188;-79
2023/10/21 13:29:04;;;;;;;1.58;1.02;;;15.30;99.90;;;;;;4954235;29;20169;-79
2023/10/21 13:31:30;;;;;;;1.67;0.77;;;18.90;99.90;;;;;;4954433;29;20242;-79
2023/10/21 13:33:56;;;;;;;0.85;0.55;;;20.40;99.90;;;;;;4954463;29;20181;-80
2023/10/21 13:36:23;;;;;;;2.28;0.73;;;20.20;99.90;;;;;;4969524;28;20180;-75
2023/10/21 13:38:49;;;;;;;1.48;0.55;;;19.90;99.90;;;;;;4992982;28;20191;-75
2023/10/21 13:41:15;;;;;;;6.25;0.75;;;19.90;99.90;;;;;;4992769;28;20724;-75